Time;durP1;ratioP1;P1;durP2;ratioP2;P2;SDS_P1;SDS_P2;PMS_P1;PMS_P2;Temp;Humidity;BMP_temperature;BMP_pressure;BME280_temperature;BME280_humidity;BME280_pressure;Samples;Min_cycle;Max_cycle;Signal;HPM_P1;HPM_P2
2022/01/13 00:00:05;;;;;;;27.98;18.73;;;;;;;2.29;71.62;101893.88;344499;28;1999;-66
2022/01/13 00:00:18;;;;;;;30.77;19.65;;;;;;;2.33;71.21;101887.19;344644;28;1721;-66
2022/01/13 00:00:31;;;;;;;30.30;20.38;;;;;;;2.37;71.47;101897.66;344060;28;1144;-66
2022/01/13 00:00:43;;;;;;;29.55;19.83;;;;;;;2.42;71.02;101889.25;343874;28;1270;-66
2022/01/13 00:00:55;;;;;;;30.80;19.55;;;;;;;2.44;70.67;101897.88;344051;28;1098;-66
2022/01/13 00:01:09;;;;;;;30.63;19.42;;;;;;;2.46;70.87;101891.09;343960;28;1073;-66
2022/01/13 00:01:30;;;;;;;28.60;19.80;;;;;;;2.50;70.47;101890.41;343838;28;1032;-66
2022/01/13 00:01:43;;;;;;;29.98;19.90;;;;;;;2.57;70.39;101894.91;344574;28;1742;-66
2022/01/13 00:01:58;;;;;;;31.17;19.85;;;;;;;2.58;69.97;101891.53;344947;28;1283;-66
2022/01/13 00:02:12;;;;;;;30.15;19.55;;;;;;;2.61;69.93;101891.63;343847;28;1046;-66
2022/01/13 00:02:32;;;;;;;28.25;19.23;;;;;;;2.65;69.52;101883.22;345016;28;1255;-66
2022/01/13 00:02:46;;;;;;;29.17;18.95;;;;;;;2.68;69.53;101888.47;344382;28;2085;-66
2022/01/13 00:02:58;;;;;;;30.83;19.45;;;;;;;2.68;69.26;101893.63;345273;28;1188;-66
2022/01/13 00:03:11;;;;;;;32.08;20.85;;;;;;;2.70;69.53;101881.69;345066;28;2153;-66
2022/01/13 00:03:23;;;;;;;32.28;20.58;;;;;;;2.68;69.21;101885.91;345249;28;1101;-66
2022/01/13 00:03:35;;;;;;;32.70;19.63;;;;;;;2.65;69.14;101887.50;344954;28;2128;-66
2022/01/13 00:03:48;;;;;;;32.53;19.55;;;;;;;2.61;69.59;101891.63;344303;28;1895;-66
2022/01/13 00:04:00;;;;;;;31.33;20.55;;;;;;;2.42;69.70;101890.09;345250;28;1633;-66
2022/01/13 00:04:13;;;;;;;29.98;20.63;;;;;;;2.35;70.52;101894.13;345261;28;1760;-66
2022/01/13 00:04:25;;;;;;;32.17;20.10;;;;;;;2.32;70.51;101894.03;343497;28;1178;-66
2022/01/13 00:04:38;;;;;;;32.22;19.73;;;;;;;2.26;70.50;101893.78;343915;28;1111;-66
2022/01/13 00:04:50;;;;;;;33.83;19.80;;;;;;;2.32;70.72;101893.16;343578;28;1055;-66
2022/01/13 00:05:03;;;;;;;31.25;20.45;;;;;;;2.29;70.44;101893.88;344663;28;1185;-66
2022/01/13 00:05:17;;;;;;;31.05;21.05;;;;;;;2.29;70.63;101899.03;344859;28;1394;-66
2022/01/13 00:05:30;;;;;;;30.08;20.27;;;;;;;2.34;70.56;101896.66;345119;28;1189;-66
2022/01/13 00:05:42;;;;;;;30.88;19.15;;;;;;;2.36;71.20;101895.00;345352;28;1878;-66
2022/01/13 00:05:54;;;;;;;29.27;18.55;;;;;;;2.39;70.33;101901.16;345196;28;1057;-66
2022/01/13 00:06:06;;;;;;;28.40;18.80;;;;;;;2.39;70.62;101896.00;343998;28;1086;-66
2022/01/13 00:06:18;;;;;;;28.63;19.65;;;;;;;2.42;70.66;101899.50;343782;28;1071;-66
2022/01/13 00:06:31;;;;;;;32.65;20.20;;;;;;;2.44;70.01;101897.88;343617;28;1058;-66
2022/01/13 00:06:44;;;;;;;34.78;20.15;;;;;;;2.37;70.52;101900.22;343692;28;1027;-66
2022/01/13 00:06:56;;;;;;;31.65;19.92;;;;;;;2.36;70.97;101901.00;343731;28;1601;-66
2022/01/13 00:07:10;;;;;;;28.48;20.20;;;;;;;2.40;70.62;101908.00;344624;28;2209;-66
2022/01/13 00:07:22;;;;;;;29.42;20.38;;;;;;;2.43;70.13;101903.81;344129;28;2033;-66
2022/01/13 00:07:36;;;;;;;30.70;19.85;;;;;;;2.43;70.17;101906.38;343938;28;1307;-66
2022/01/13 00:07:48;;;;;;;31.95;20.05;;;;;;;2.38;70.00;101899.38;343927;28;1078;-66
2022/01/13 00:08:00;;;;;;;32.60;19.55;;;;;;;2.38;69.98;101904.50;344386;28;1581;-66
2022/01/13 00:08:12;;;;;;;32.28;20.13;;;;;;;2.42;70.11;101904.63;344600;28;2227;-66
2022/01/13 00:08:24;;;;;;;30.55;19.85;;;;;;;2.47;70.22;101908.22;344980;28;2331;-66
2022/01/13 00:08:36;;;;;;;31.02;19.77;;;;;;;2.50;70.17;101908.34;345245;28;1258;-66
2022/01/13 00:08:48;;;;;;;31.90;19.75;;;;;;;2.51;70.39;101905.81;345303;28;1337;-66
2022/01/13 00:09:00;;;;;;;31.52;19.42;;;;;;;2.51;70.22;101902.41;345330;28;1635;-66
2022/01/13 00:09:14;;;;;;;29.60;19.33;;;;;;;2.57;70.22;101900.91;345060;28;1201;-66
2022/01/13 00:09:26;;;;;;;29.63;19.05;;;;;;;2.62;70.22;101903.66;345227;28;1043;-66
2022/01/13 00:09:38;;;;;;;31.05;19.30;;;;;;;2.64;69.75;101903.72;345209;28;1232;-66
2022/01/13 00:09:50;;;;;;;30.23;19.05;;;;;;;2.68;69.94;101909.03;345239;28;1201;-66
2022/01/13 00:10:05;;;;;;;28.98;18.42;;;;;;;2.65;69.55;101908.91;345179;28;1660;-66
2022/01/13 00:10:17;;;;;;;28.63;18.77;;;;;;;2.56;69.19;101912.03;345096;28;2121;-66
2022/01/13 00:10:29;;;;;;;33.67;19.77;;;;;;;2.60;69.92;101913.00;343892;28;1023;-66
2022/01/13 00:10:42;;;;;;;34.65;20.42;;;;;;;2.62;69.69;101906.25;343728;28;1073;-66
2022/01/13 00:10:54;;;;;;;31.25;19.40;;;;;;;2.62;69.55;101903.66;345003;28;1545;-66
2022/01/13 00:11:06;;;;;;;29.67;18.63;;;;;;;2.57;69.54;101906.03;345293;28;1956;-66
2022/01/13 00:11:18;;;;;;;31.05;18.92;;;;;;;2.58;69.02;101910.38;345106;28;1334;-66
2022/01/13 00:11:30;;;;;;;34.45;20.20;;;;;;;2.56;69.80;101904.31;345017;28;1911;-67
2022/01/13 00:11:46;;;;;;;35.08;20.83;;;;;;;2.58;69.70;101910.38;345045;28;1849;-66
2022/01/13 00:11:58;;;;;;;32.72;19.67;;;;;;;2.65;69.18;101903.75;344959;28;1968;-66
2022/01/13 00:12:20;;;;;;;31.10;18.70;;;;;;;2.68;69.05;101913.28;345178;28;1098;-66
2022/01/13 00:12:38;;;;;;;30.35;18.90;;;;;;;2.68;69.12;101909.03;345177;28;1151;-66
2022/01/13 00:12:58;;;;;;;31.30;20.20;;;;;;;2.72;69.21;101910.88;344960;28;1136;-66
2022/01/13 00:13:13;;;;;;;34.75;19.58;;;;;;;2.72;69.13;101910.00;344471;28;1816;-66
2022/01/13 00:13:32;;;;;;;32.63;19.73;;;;;;;2.75;68.99;101910.97;345106;28;1491;-66
2022/01/13 00:14:20;;;;;;;30.88;20.27;;;;;;;2.78;69.22;101908.53;345364;28;1038;-66
2022/01/13 00:15:07;;;;;;;32.00;19.45;;;;;;;2.71;68.62;101918.53;345194;28;1056;-66
2022/01/13 00:15:46;;;;;;;34.72;19.05;;;;;;;2.63;68.93;101913.09;345000;28;1039;-66
2022/01/13 00:16:55;;;;;;;32.78;19.58;;;;;;;2.62;69.31;101919.06;345106;28;1612;-66
2022/01/13 00:17:45;;;;;;;29.98;19.48;;;;;;;2.56;69.23;101916.28;345035;28;927;-66
2022/01/13 00:18:51;;;;;;;30.65;18.45;;;;;;;2.66;68.67;101920.94;341822;28;1385;-66
2022/01/13 00:19:18;;;;;;;29.83;19.50;;;;;;;2.69;69.15;101910.75;341942;28;1691;-66
2022/01/13 00:19:20;;;;;;;30.70;19.23;;;;;;;2.52;69.27;101914.44;344939;28;1396;-66
2022/01/13 00:20:10;;;;;;;29.05;19.83;;;;;;;2.73;68.86;101904.91;344057;28;834;-66
2022/01/13 00:21:51;;;;;;;29.13;19.30;;;;;;;2.96;69.15;101917.72;346353;28;1062;-66
2022/01/13 00:22:18;;;;;;;31.77;19.75;;;;;;;2.98;68.51;101916.06;346130;28;1633;-66
2022/01/13 00:23:54;;;;;;;25.40;17.30;;;;;;;3.14;68.00;101920.91;344993;28;1269;-66
2022/01/13 00:24:10;;;;;;;26.23;17.83;;;;;;;3.14;67.80;101920.91;345248;28;1985;-66
2022/01/13 00:24:23;;;;;;;29.40;18.85;;;;;;;3.03;68.00;101921.34;345073;28;1580;-66
2022/01/13 00:24:35;;;;;;;29.50;18.75;;;;;;;2.87;68.40;101925.09;345258;28;1213;-66
2022/01/13 00:24:52;;;;;;;29.13;18.30;;;;;;;2.76;68.58;101923.00;345231;28;1188;-66
2022/01/13 00:25:07;;;;;;;29.23;19.70;;;;;;;2.79;68.34;101923.09;345301;28;1616;-66
2022/01/13 00:25:21;;;;;;;28.88;19.63;;;;;;;2.84;68.42;101919.81;345062;28;1275;-65
2022/01/13 00:25:34;;;;;;;29.10;18.55;;;;;;;2.88;68.36;101921.69;344744;28;2022;-66
2022/01/13 00:25:52;;;;;;;28.10;18.33;;;;;;;2.91;68.03;101921.81;344820;28;1080;-66
2022/01/13 00:26:15;;;;;;;29.10;19.48;;;;;;;2.95;68.24;101924.53;345305;28;1737;-66
2022/01/13 00:26:29;;;;;;;30.95;20.23;;;;;;;2.86;68.52;101924.22;344871;28;1572;-66
2022/01/13 00:26:42;;;;;;;33.25;19.83;;;;;;;2.85;68.28;101921.59;345389;28;1229;-66
2022/01/13 00:26:55;;;;;;;32.80;19.67;;;;;;;2.82;68.54;101924.03;344049;28;2161;-66
2022/01/13 00:27:13;;;;;;;30.15;20.67;;;;;;;2.83;68.68;101923.22;343764;28;1064;-66
2022/01/13 00:27:28;;;;;;;29.65;20.88;;;;;;;2.83;68.48;101928.38;343603;28;1026;-66
2022/01/13 00:27:55;;;;;;;29.50;19.90;;;;;;;2.80;68.40;101918.88;343860;28;1066;-66
2022/01/13 00:28:16;;;;;;;31.33;19.50;;;;;;;2.76;68.62;101927.28;344804;28;2037;-66
2022/01/13 00:28:28;;;;;;;30.08;20.60;;;;;;;2.76;69.19;101923.00;346223;28;1114;-66
2022/01/13 00:28:43;;;;;;;30.67;21.20;;;;;;;2.79;68.80;101925.66;346093;28;1352;-66
2022/01/13 00:28:57;;;;;;;30.75;20.17;;;;;;;2.84;68.54;101924.97;346154;28;1118;-66
2022/01/13 00:29:09;;;;;;;30.30;19.08;;;;;;;2.86;68.80;101928.44;346849;28;2125;-66
2022/01/13 00:29:28;;;;;;;30.85;19.90;;;;;;;2.89;68.79;101919.16;345788;28;1217;-66
2022/01/13 00:29:43;;;;;;;30.08;20.52;;;;;;;2.90;68.43;101920.06;346048;28;1051;-66
2022/01/13 00:29:59;;;;;;;29.08;19.20;;;;;;;2.87;68.41;101925.09;342827;28;3300;-66
2022/01/13 00:30:16;;;;;;;29.00;18.98;;;;;;;2.91;68.53;101926.94;343308;28;1868;-66
2022/01/13 00:30:28;;;;;;;28.58;19.55;;;;;;;2.95;68.59;101923.66;343686;28;3224;-66
2022/01/13 00:30:40;;;;;;;29.40;19.38;;;;;;;2.94;68.89;101927.06;344927;28;1938;-66
2022/01/13 00:30:55;;;;;;;30.58;19.40;;;;;;;2.95;68.67;101926.22;345213;28;1191;-66
2022/01/13 00:31:07;;;;;;;30.38;19.38;;;;;;;2.99;68.29;101925.50;343882;28;1225;-66
2022/01/13 00:31:25;;;;;;;28.58;19.40;;;;;;;3.00;68.53;101922.13;343815;28;1151;-66
2022/01/13 00:31:40;;;;;;;29.00;19.20;;;;;;;3.03;68.46;101922.22;343698;28;1146;-66
2022/01/13 00:31:53;;;;;;;29.38;19.02;;;;;;;3.02;68.34;101925.63;344097;28;5383;-66
2022/01/13 00:32:05;;;;;;;30.20;19.58;;;;;;;3.02;67.93;101920.50;345116;28;2146;-66
2022/01/13 00:32:20;;;;;;;30.05;19.98;;;;;;;2.99;67.87;101922.94;345304;28;1101;-66
2022/01/13 00:32:33;;;;;;;29.15;20.05;;;;;;;2.96;68.31;101925.41;344991;28;1187;-66
2022/01/13 00:32:45;;;;;;;28.92;19.52;;;;;;;2.95;68.17;101919.38;345350;28;1312;-66
2022/01/13 00:33:04;;;;;;;28.38;18.77;;;;;;;2.90;68.76;101925.22;344852;28;1615;-66
2022/01/13 00:33:24;;;;;;;28.40;19.92;;;;;;;2.73;69.67;101928.03;344648;28;2676;-66
2022/01/13 00:33:36;;;;;;;31.05;20.65;;;;;;;2.75;69.69;101926.38;343504;28;1084;-66
2022/01/13 00:33:51;;;;;;;30.63;20.42;;;;;;;2.67;69.74;101922.66;343612;28;1381;-66
2022/01/13 00:34:05;;;;;;;29.38;19.92;;;;;;;2.62;69.54;101928.44;344951;28;1377;-66
2022/01/13 00:34:17;;;;;;;31.10;19.70;;;;;;;2.68;69.53;101924.44;345176;28;1216;-66
2022/01/13 00:34:29;;;;;;;31.73;19.08;;;;;;;2.69;69.68;101931.31;344962;28;1091;-66
2022/01/13 00:34:43;;;;;;;31.48;19.20;;;;;;;2.69;70.00;101926.16;345166;28;1167;-66
2022/01/13 00:34:55;;;;;;;31.17;20.80;;;;;;;2.72;69.45;101921.16;344678;28;1529;-66
2022/01/13 00:35:08;;;;;;;31.92;21.05;;;;;;;2.74;69.95;101927.22;345212;28;1066;-66
2022/01/13 00:35:20;;;;;;;30.27;19.83;;;;;;;2.76;70.02;101922.16;344399;28;2164;-66
2022/01/13 00:35:32;;;;;;;29.65;19.25;;;;;;;2.74;69.63;101927.22;344982;28;1957;-66
2022/01/13 00:35:44;;;;;;;30.05;19.17;;;;;;;2.78;69.21;101929.06;345192;28;997;-66
2022/01/13 00:35:58;;;;;;;30.80;20.00;;;;;;;2.78;69.75;101929.06;344779;28;4120;-66
2022/01/13 00:36:11;;;;;;;31.50;19.58;;;;;;;2.79;69.52;101927.38;344699;28;1639;-66
2022/01/13 00:36:24;;;;;;;31.30;19.55;;;;;;;2.69;70.31;101928.72;344640;28;2220;-66
2022/01/13 00:36:39;;;;;;;31.50;20.10;;;;;;;2.70;70.29;101927.94;345241;28;1283;-66
2022/01/13 00:36:51;;;;;;;30.02;19.73;;;;;;;2.73;70.09;101930.59;345201;28;1345;-66
2022/01/13 00:37:03;;;;;;;30.27;19.33;;;;;;;2.77;69.84;101929.88;344682;28;2135;-66
2022/01/13 00:37:15;;;;;;;31.80;19.50;;;;;;;2.81;69.94;101936.00;345211;28;1047;-66
2022/01/13 00:37:27;;;;;;;32.13;19.98;;;;;;;2.83;69.37;101928.38;345103;28;1269;-66
2022/01/13 00:37:40;;;;;;;30.55;20.17;;;;;;;2.86;69.64;101933.59;345246;28;1059;-66
2022/01/13 00:37:52;;;;;;;30.13;20.23;;;;;;;2.84;69.71;101935.22;344254;28;1979;-66
2022/01/13 00:38:04;;;;;;;28.77;19.23;;;;;;;2.85;69.16;101931.84;344079;28;1730;-66
2022/01/13 00:38:17;;;;;;;27.10;18.42;;;;;;;2.87;69.25;101932.78;345273;28;1078;-66
2022/01/13 00:38:32;;;;;;;28.17;18.95;;;;;;;2.91;69.33;101932.06;345374;28;1203;-66
2022/01/13 00:38:44;;;;;;;31.13;20.02;;;;;;;2.95;69.51;101923.66;345249;28;1308;-66
2022/01/13 00:38:57;;;;;;;30.55;20.42;;;;;;;2.95;69.29;101927.09;345264;28;1630;-66
2022/01/13 00:39:11;;;;;;;29.38;19.50;;;;;;;2.98;69.08;101923.78;345238;28;1102;-66
2022/01/13 00:39:24;;;;;;;29.50;18.52;;;;;;;2.99;69.16;101928.06;344664;28;2174;-66
2022/01/13 00:39:36;;;;;;;28.63;18.70;;;;;;;3.02;68.91;101929.88;345341;28;1022;-66
2022/01/13 00:39:48;;;;;;;26.98;18.90;;;;;;;3.03;68.89;101927.38;344124;28;1803;-66
2022/01/13 00:40:00;;;;;;;26.45;18.65;;;;;;;3.04;68.88;101929.13;345141;28;1679;-66
2022/01/13 00:40:13;;;;;;;27.17;18.10;;;;;;;3.04;68.89;101924.00;345123;28;1154;-66
2022/01/13 00:40:25;;;;;;;27.52;18.00;;;;;;;3.09;68.70;101927.56;343694;28;2617;-66
2022/01/13 00:40:37;;;;;;;26.77;18.02;;;;;;;3.10;69.12;101929.34;344406;28;1955;-66
2022/01/13 00:40:49;;;;;;;27.38;18.88;;;;;;;3.10;68.93;101924.19;345024;28;1039;-66
2022/01/13 00:41:01;;;;;;;27.73;18.65;;;;;;;3.09;68.32;101927.56;344975;28;1565;-66
2022/01/13 00:41:13;;;;;;;27.58;18.60;;;;;;;3.09;68.42;101926.72;345126;28;1078;-66
2022/01/13 00:41:29;;;;;;;30.48;19.65;;;;;;;3.10;68.26;101934.47;345213;28;1051;-66
2022/01/13 00:41:41;;;;;;;31.75;20.52;;;;;;;3.11;68.18;101930.22;344396;28;1852;-66
2022/01/13 00:41:53;;;;;;;30.70;19.73;;;;;;;3.11;68.03;101931.06;344679;28;1966;-66
2022/01/13 00:42:05;;;;;;;27.00;17.85;;;;;;;3.11;68.41;101931.06;344995;28;2076;-66
2022/01/13 00:42:17;;;;;;;26.35;17.90;;;;;;;3.15;68.72;101932.94;345361;28;929;-66
2022/01/13 00:42:29;;;;;;;28.20;19.17;;;;;;;3.12;68.74;101930.25;344761;28;2173;-66
2022/01/13 00:42:41;;;;;;;30.92;20.08;;;;;;;3.12;68.95;101929.38;345213;28;1067;-66
2022/01/13 00:42:53;;;;;;;31.73;20.17;;;;;;;3.06;69.17;101924.91;345226;28;1217;-66
2022/01/13 00:43:06;;;;;;;30.13;19.80;;;;;;;3.05;68.83;101930.00;345188;28;1664;-66
2022/01/13 00:43:18;;;;;;;28.75;19.33;;;;;;;3.00;69.55;101929.84;345386;28;1066;-65
2022/01/13 00:43:36;;;;;;;30.58;19.85;;;;;;;3.03;69.50;101927.38;344319;28;1887;-66
2022/01/13 00:43:51;;;;;;;31.10;19.65;;;;;;;2.95;69.49;101933.94;343706;28;1055;-66
2022/01/13 00:44:05;;;;;;;28.02;18.60;;;;;;;2.98;69.02;101936.63;344485;28;1709;-66
2022/01/13 00:44:20;;;;;;;28.92;19.08;;;;;;;2.95;69.60;101939.06;345139;28;1344;-66
2022/01/13 00:44:37;;;;;;;31.20;20.10;;;;;;;2.89;69.88;101944.00;344818;28;2245;-66
2022/01/13 00:44:49;;;;;;;30.65;20.08;;;;;;;2.89;70.03;101938.84;344335;28;2112;-67
2022/01/13 00:45:03;;;;;;;30.63;19.50;;;;;;;2.87;69.47;101940.50;344346;28;2172;-66
2022/01/13 00:45:16;;;;;;;31.35;19.83;;;;;;;2.90;69.51;101940.63;345355;28;1138;-66
2022/01/13 00:45:28;;;;;;;30.52;20.30;;;;;;;2.89;69.42;101934.59;345391;28;1197;-66
2022/01/13 00:45:40;;;;;;;30.08;19.85;;;;;;;2.80;69.71;101940.28;344980;28;1910;-66
2022/01/13 00:45:52;;;;;;;29.85;19.00;;;;;;;2.82;70.04;101936.88;345405;28;1294;-66
2022/01/13 00:46:05;;;;;;;29.42;18.65;;;;;;;2.80;70.04;101939.41;345044;28;1673;-66
2022/01/13 00:46:24;;;;;;;29.27;19.50;;;;;;;2.77;70.26;101935.00;345052;28;1209;-66
2022/01/13 00:46:42;;;;;;;29.38;20.15;;;;;;;2.85;69.72;101939.56;346161;28;1216;-66
2022/01/13 00:46:58;;;;;;;30.75;19.33;;;;;;;2.86;70.04;101938.72;345052;28;2238;-66
2022/01/13 00:47:11;;;;;;;31.95;19.20;;;;;;;2.87;70.11;101935.34;346074;28;1823;-66
2022/01/13 00:47:23;;;;;;;30.90;20.23;;;;;;;2.83;70.70;101936.06;345694;28;1828;-66
2022/01/13 00:47:36;;;;;;;32.38;21.77;;;;;;;2.85;70.78;101937.00;346358;28;1103;-66
2022/01/13 00:47:48;;;;;;;32.80;20.90;;;;;;;2.88;70.56;101931.94;344932;28;1062;-66
2022/01/13 00:48:00;;;;;;;31.30;19.95;;;;;;;2.92;70.48;101934.72;345068;28;1688;-66
2022/01/13 00:48:12;;;;;;;29.80;19.88;;;;;;;2.95;70.03;101928.78;344790;28;4521;-66
2022/01/13 00:48:24;;;;;;;30.05;20.10;;;;;;;3.01;70.01;101934.16;344986;28;1019;-66
2022/01/13 00:48:36;;;;;;;29.73;19.35;;;;;;;2.96;69.63;101930.56;344578;28;2186;-66
2022/01/13 00:48:58;;;;;;;29.35;18.98;;;;;;;2.94;70.03;101927.94;343865;28;1354;-66
2022/01/13 00:49:12;;;;;;;30.92;19.23;;;;;;;3.00;69.86;101930.72;343724;28;1119;-66
2022/01/13 00:49:24;;;;;;;29.52;19.10;;;;;;;3.01;69.91;101929.00;343890;28;1159;-66
2022/01/13 00:49:37;;;;;;;30.17;19.40;;;;;;;3.03;69.55;101935.06;343997;28;968;-66
2022/01/13 00:49:49;;;;;;;31.52;19.63;;;;;;;3.05;69.36;101935.13;343797;28;1235;-66
2022/01/13 00:50:01;;;;;;;30.98;19.27;;;;;;;3.06;69.23;101937.75;343798;28;1934;-66
2022/01/13 00:50:13;;;;;;;31.02;19.80;;;;;;;3.10;69.47;101934.47;343867;28;1102;-66
2022/01/13 00:50:25;;;;;;;28.38;18.98;;;;;;;3.11;69.32;101936.22;343866;28;1615;-66
2022/01/13 00:50:37;;;;;;;27.77;18.65;;;;;;;3.15;68.99;101938.06;344164;28;1814;-66
2022/01/13 00:50:49;;;;;;;27.63;18.58;;;;;;;3.11;68.67;101930.22;344276;28;2257;-66
2022/01/13 00:51:02;;;;;;;28.90;18.35;;;;;;;3.10;68.86;101938.72;345001;28;1687;-66
2022/01/13 00:51:14;;;;;;;30.25;18.77;;;;;;;3.11;68.80;101931.06;345181;28;1153;-66
2022/01/13 00:51:26;;;;;;;31.70;20.10;;;;;;;3.11;69.10;101931.06;345342;28;1108;-65
2022/01/13 00:51:39;;;;;;;30.33;20.20;;;;;;;3.06;68.71;101936.88;344394;28;2265;-66
2022/01/13 00:51:51;;;;;;;29.38;19.30;;;;;;;3.05;69.26;101936.00;345170;28;1174;-66
2022/01/13 00:52:04;;;;;;;27.73;18.63;;;;;;;3.08;68.96;101936.13;345075;28;1429;-66
2022/01/13 00:52:16;;;;;;;27.60;18.90;;;;;;;3.11;68.95;101938.78;345269;28;1113;-66
2022/01/13 00:52:28;;;;;;;28.98;19.33;;;;;;;3.12;68.86;101937.06;345127;28;875;-66
2022/01/13 00:52:40;;;;;;;28.63;19.00;;;;;;;3.15;68.51;101940.63;344662;28;2045;-66
2022/01/13 00:52:52;;;;;;;28.20;18.25;;;;;;;3.16;68.43;101936.38;345290;28;1143;-66
2022/01/13 00:53:04;;;;;;;27.30;17.83;;;;;;;3.15;68.64;101938.06;345213;28;1828;-66
2022/01/13 00:53:16;;;;;;;28.00;18.48;;;;;;;3.14;68.52;101931.19;345212;28;1330;-66
2022/01/13 00:53:28;;;;;;;28.83;19.60;;;;;;;3.09;68.67;101937.84;345013;28;1110;-66
2022/01/13 00:53:41;;;;;;;27.50;19.45;;;;;;;3.11;68.67;101936.22;344524;28;1843;-66
2022/01/13 00:53:54;;;;;;;27.40;19.10;;;;;;;3.10;68.50;101937.06;344868;28;1152;-66
2022/01/13 00:54:08;;;;;;;27.17;17.95;;;;;;;3.12;68.64;101940.53;343758;28;1051;-66
2022/01/13 00:54:20;;;;;;;27.75;17.75;;;;;;;3.11;68.82;101936.22;344201;28;1927;-66
2022/01/13 00:54:34;;;;;;;27.80;18.55;;;;;;;3.06;68.90;101935.19;344979;28;1026;-66
2022/01/13 00:54:46;;;;;;;26.98;18.70;;;;;;;3.07;68.62;101936.06;345025;28;1183;-66
2022/01/13 00:55:01;;;;;;;27.98;19.23;;;;;;;3.08;69.14;101933.56;344661;28;1264;-66
2022/01/13 00:55:20;;;;;;;30.73;19.75;;;;;;;3.11;69.06;101940.47;344916;28;905;-66
2022/01/13 00:55:45;;;;;;;29.55;18.77;;;;;;;3.12;68.97;101942.22;343727;28;1313;-66
2022/01/13 00:56:00;;;;;;;30.98;20.52;;;;;;;3.16;68.87;101934.69;343798;28;1660;-66
2022/01/13 00:56:12;;;;;;;29.00;20.35;;;;;;;3.22;68.73;101941.75;345124;28;1039;-66
2022/01/13 00:56:24;;;;;;;29.48;19.27;;;;;;;3.24;68.70;101941.78;345068;28;1269;-66
2022/01/13 00:56:37;;;;;;;27.65;17.95;;;;;;;3.23;68.57;101940.03;345362;28;846;-66
2022/01/13 00:56:49;;;;;;;28.38;18.33;;;;;;;3.21;67.96;101942.53;345181;28;1043;-65
2022/01/13 00:57:01;;;;;;;30.85;19.20;;;;;;;3.18;68.44;101937.31;344521;28;1619;-65
2022/01/13 00:57:14;;;;;;;32.10;19.58;;;;;;;3.19;68.40;101939.91;344429;28;2523;-66
2022/01/13 00:57:28;;;;;;;30.92;19.95;;;;;;;3.14;68.41;101941.47;344004;28;1325;-66
2022/01/13 00:57:39;;;;;;;31.27;19.10;;;;;;;3.04;68.50;101934.25;343700;28;1068;-66
2022/01/13 00:57:51;;;;;;;30.17;18.58;;;;;;;3.05;69.17;101935.13;343842;28;1834;-66
2022/01/13 00:58:03;;;;;;;29.48;18.67;;;;;;;3.08;69.06;101941.25;344849;28;1832;-66
2022/01/13 00:58:17;;;;;;;28.55;18.88;;;;;;;3.09;68.71;101935.28;345191;28;1058;-66
2022/01/13 00:58:31;;;;;;;28.75;19.30;;;;;;;3.13;68.99;101938.84;345155;28;1293;-66
2022/01/13 00:58:43;;;;;;;28.58;18.65;;;;;;;3.10;68.86;101938.72;345183;28;1409;-66
2022/01/13 00:58:55;;;;;;;27.45;18.17;;;;;;;3.13;68.87;101934.56;344895;28;2067;-66
2022/01/13 00:59:12;;;;;;;30.00;19.00;;;;;;;3.18;68.66;101942.47;344854;28;1992;-66
2022/01/13 00:59:24;;;;;;;32.13;19.55;;;;;;;3.21;68.63;101942.53;344916;28;1070;-66
2022/01/13 00:59:36;;;;;;;30.80;18.88;;;;;;;3.23;68.90;101945.19;345132;28;1201;-66
2022/01/13 00:59:51;;;;;;;29.98;18.92;;;;;;;3.26;68.45;101945.25;345188;28;1028;-66
2022/01/13 01:00:04;;;;;;;30.48;19.30;;;;;;;3.29;68.37;101940.25;343851;28;2153;-66
2022/01/13 01:00:16;;;;;;;28.63;19.20;;;;;;;3.30;68.61;101936.84;345022;28;1058;-66
2022/01/13 01:00:28;;;;;;;27.63;18.42;;;;;;;3.32;68.45;101940.34;344498;28;2064;-66
2022/01/13 01:00:41;;;;;;;26.77;17.52;;;;;;;3.32;68.86;101945.47;345205;28;1159;-66
2022/01/13 01:00:54;;;;;;;29.25;18.08;;;;;;;3.31;68.79;101948.88;345145;28;1030;-66
2022/01/13 01:01:07;;;;;;;30.35;18.75;;;;;;;3.30;68.61;101947.13;343839;28;2095;-66
2022/01/13 01:01:20;;;;;;;30.00;19.17;;;;;;;3.30;68.39;101941.97;343865;28;1363;-66
2022/01/13 01:01:32;;;;;;;31.17;20.40;;;;;;;3.25;68.29;101944.41;343635;28;1355;-65
2022/01/13 01:01:48;;;;;;;32.35;20.40;;;;;;;3.16;68.77;101944.97;343661;28;1098;-66
2022/01/13 01:02:00;;;;;;;33.47;19.38;;;;;;;3.18;68.57;101943.31;342634;28;3450;-66
2022/01/13 01:02:13;;;;;;;31.27;18.75;;;;;;;3.20;68.40;101944.25;345895;28;4808;-66
2022/01/13 01:02:26;;;;;;;30.52;19.05;;;;;;;3.24;68.21;101949.47;346251;28;1183;-66
2022/01/13 01:02:38;;;;;;;30.65;19.20;;;;;;;3.26;68.71;101942.69;345391;28;4964;-66
2022/01/13 01:02:50;;;;;;;29.45;19.10;;;;;;;3.24;68.46;101952.06;344893;28;1099;-65
2022/01/13 01:03:03;;;;;;;30.63;19.70;;;;;;;3.23;68.37;101942.59;345583;28;1614;-66
2022/01/13 01:03:15;;;;;;;30.83;20.45;;;;;;;3.26;68.60;101947.84;346109;28;1148;-66
2022/01/13 01:03:28;;;;;;;30.48;19.90;;;;;;;3.23;68.44;101943.47;346319;28;1138;-66
2022/01/13 01:03:41;;;;;;;30.13;19.65;;;;;;;3.17;68.39;101940.69;346158;28;1125;-66
2022/01/13 01:03:53;;;;;;;31.45;19.98;;;;;;;3.13;69.02;101944.84;345701;28;2233;-67
2022/01/13 01:04:06;;;;;;;30.48;19.58;;;;;;;3.15;69.23;101943.22;345814;28;2283;-67
2022/01/13 01:04:18;;;;;;;31.77;19.40;;;;;;;3.12;69.11;101943.13;345264;28;1039;-67
2022/01/13 01:04:30;;;;;;;33.63;19.55;;;;;;;3.15;68.98;101942.34;344712;28;1974;-67
2022/01/13 01:04:42;;;;;;;33.75;19.48;;;;;;;3.14;68.91;101944.03;344972;28;1117;-67
2022/01/13 01:04:54;;;;;;;33.00;19.88;;;;;;;3.12;69.26;101937.97;344631;28;1129;-67
2022/01/13 01:05:14;;;;;;;29.00;19.27;;;;;;;3.14;68.78;101938.00;343514;28;1078;-67
2022/01/13 01:05:25;;;;;;;29.52;18.83;;;;;;;3.16;68.85;101937.25;343590;28;1091;-67
2022/01/13 01:05:38;;;;;;;29.20;19.00;;;;;;;3.22;68.84;101943.41;343496;28;1059;-67
2022/01/13 01:05:50;;;;;;;29.27;19.20;;;;;;;3.25;68.62;101943.53;344472;28;1700;-67
2022/01/13 01:06:04;;;;;;;28.90;19.45;;;;;;;3.26;68.44;101945.25;345050;28;1718;-67
2022/01/13 01:06:16;;;;;;;28.95;18.55;;;;;;;3.27;69.13;101947.91;344940;28;1296;-67
2022/01/13 01:06:28;;;;;;;29.90;18.70;;;;;;;3.27;68.71;101941.88;345092;28;1341;-67
2022/01/13 01:06:40;;;;;;;29.70;19.05;;;;;;;3.29;68.82;101945.38;344900;28;1215;-67
2022/01/13 01:06:52;;;;;;;30.38;18.98;;;;;;;3.30;68.36;101947.13;344883;28;1330;-67
2022/01/13 01:07:04;;;;;;;31.10;19.27;;;;;;;3.31;68.36;101943.75;344337;28;2064;-67
2022/01/13 01:07:16;;;;;;;30.70;19.15;;;;;;;3.31;68.31;101943.75;344640;28;1940;-67
2022/01/13 01:07:29;;;;;;;30.25;18.80;;;;;;;3.30;68.49;101947.13;344428;28;2168;-67
2022/01/13 01:07:41;;;;;;;31.63;19.10;;;;;;;3.32;68.28;101950.59;344803;28;1898;-67
2022/01/13 01:07:53;;;;;;;31.73;19.15;;;;;;;3.33;68.33;101942.09;344636;28;1790;-67
2022/01/13 01:08:06;;;;;;;28.92;19.42;;;;;;;3.35;68.18;101940.44;345020;28;1580;-67
2022/01/13 01:08:18;;;;;;;29.20;18.88;;;;;;;3.37;67.91;101946.50;343673;28;1082;-67
2022/01/13 01:08:33;;;;;;;29.67;17.92;;;;;;;3.36;68.37;101944.75;343671;28;1022;-67
2022/01/13 01:08:45;;;;;;;28.67;18.05;;;;;;;3.38;68.42;101945.69;344944;28;1306;-67
2022/01/13 01:08:58;;;;;;;26.48;18.85;;;;;;;3.38;68.26;101946.56;344688;28;1272;-67
2022/01/13 01:09:15;;;;;;;26.20;19.10;;;;;;;3.39;68.25;101942.28;345473;28;2091;-67
2022/01/13 01:09:39;;;;;;;27.73;17.77;;;;;;;3.40;68.28;101944.03;345489;28;2059;-67
2022/01/13 01:09:51;;;;;;;27.95;18.13;;;;;;;3.38;67.84;101945.69;346161;28;1146;-67
2022/01/13 01:10:05;;;;;;;28.67;19.35;;;;;;;3.35;68.25;101935.31;346188;28;1619;-67
2022/01/13 01:10:19;;;;;;;30.17;19.08;;;;;;;3.31;68.08;101939.47;345946;28;1245;-67
2022/01/13 01:10:37;;;;;;;29.77;18.27;;;;;;;3.33;68.33;101936.94;345843;28;1450;-67
2022/01/13 01:10:53;;;;;;;28.98;19.00;;;;;;;3.35;68.20;101935.31;344362;28;1705;-67
2022/01/13 01:11:06;;;;;;;29.40;18.65;;;;;;;3.33;68.23;101934.38;344949;28;1591;-67
2022/01/13 01:11:18;;;;;;;28.17;17.65;;;;;;;3.36;68.34;101937.03;344919;28;1047;-67